createdAt,value
2017-12-15T00:00:02.655Z,-85
2017-12-15T00:02:32.099Z,-83
2017-12-15T00:05:00.775Z,-84
2017-12-15T00:07:29.455Z,-85
2017-12-15T00:09:58.124Z,-85
2017-12-15T00:12:26.803Z,-85
2017-12-15T00:15:02.380Z,-85
2017-12-15T00:17:31.055Z,-85
2017-12-15T00:19:59.730Z,-85
2017-12-15T00:22:28.399Z,-85
2017-12-15T00:24:57.846Z,-85
2017-12-15T00:27:26.546Z,-85
2017-12-15T00:30:01.419Z,-85
2017-12-15T00:32:30.866Z,-85
2017-12-15T00:34:59.560Z,-85
2017-12-15T00:37:28.223Z,-85
2017-12-15T00:39:56.932Z,-85
2017-12-15T00:42:25.576Z,-85
2017-12-15T00:44:58.300Z,-85
2017-12-15T00:47:26.979Z,-85
2017-12-15T00:49:55.665Z,-85
2017-12-15T00:52:26.346Z,-85
2017-12-15T00:54:55.792Z,-85
2017-12-15T00:57:24.463Z,-86
2017-12-15T00:59:53.147Z,-86
2017-12-15T01:02:21.819Z,-86
2017-12-15T01:04:50.495Z,-85
2017-12-15T01:07:19.940Z,-85
2017-12-15T01:09:48.619Z,-85
2017-12-15T01:12:18.139Z,-85
2017-12-15T01:14:46.811Z,-84
2017-12-15T01:17:15.492Z,-86
2017-12-15T01:19:44.177Z,-86
2017-12-15T01:22:13.803Z,-85
2017-12-15T01:24:42.487Z,-86
2017-12-15T01:27:11.151Z,-85
2017-12-15T01:29:39.826Z,-86
2017-12-15T01:32:08.499Z,-86
2017-12-15T01:34:37.174Z,-86
2017-12-15T01:37:06.616Z,-85
2017-12-15T01:39:42.272Z,-85
2017-12-15T01:42:10.943Z,-85
2017-12-15T01:44:39.626Z,-85
2017-12-15T01:47:08.322Z,-86
2017-12-15T01:49:37.003Z,-84
2017-12-15T01:52:05.684Z,-86
2017-12-15T01:54:34.364Z,-86
2017-12-15T01:57:03.047Z,-86
2017-12-15T01:59:31.722Z,-85
2017-12-15T02:02:00.427Z,-86
2017-12-15T02:04:29.107Z,-86
2017-12-15T02:06:57.778Z,-86
2017-12-15T02:09:26.450Z,-86
2017-12-15T02:11:55.891Z,-85
2017-12-15T02:14:24.567Z,-86
2017-12-15T02:16:53.250Z,-85
2017-12-15T02:19:22.807Z,-86
2017-12-15T02:21:52.349Z,-86
2017-12-15T02:24:21.015Z,-86
2017-12-15T02:26:50.459Z,-85
2017-12-15T02:29:19.970Z,-86
2017-12-15T02:32:00.043Z,-86
2017-12-15T02:34:28.737Z,-86
2017-12-15T02:36:57.421Z,-86
2017-12-15T02:39:26.090Z,-86
2017-12-15T02:41:55.584Z,-87
2017-12-15T02:44:24.255Z,-87
2017-12-15T02:46:53.783Z,-87
2017-12-15T02:49:22.455Z,-87
2017-12-15T02:51:51.279Z,-87
2017-12-15T02:54:20.804Z,-86
2017-12-15T02:56:51.451Z,-86
2017-12-15T02:59:20.894Z,-86
2017-12-15T03:01:49.567Z,-86
2017-12-15T03:04:18.248Z,-86
2017-12-15T03:06:46.928Z,-86
2017-12-15T03:09:15.599Z,-86
2017-12-15T03:11:50.491Z,-86
2017-12-15T03:14:19.167Z,-86
2017-12-15T03:16:47.846Z,-86
2017-12-15T03:19:16.514Z,-86
2017-12-15T03:21:45.199Z,-86
2017-12-15T03:24:13.870Z,-86
2017-12-15T03:26:44.536Z,-86
2017-12-15T03:29:13.207Z,-86
2017-12-15T03:31:41.883Z,-86
2017-12-15T03:34:16.910Z,-86
2017-12-15T03:36:45.596Z,-86
2017-12-15T03:39:14.271Z,-87
2017-12-15T03:41:42.955Z,-87
2017-12-15T03:44:11.627Z,-86
2017-12-15T03:46:41.073Z,-86
2017-12-15T03:49:09.750Z,-86
2017-12-15T03:51:38.434Z,-86
2017-12-15T03:54:11.637Z,-86
2017-12-15T03:56:46.549Z,-87
2017-12-15T03:59:16.167Z,-87
2017-12-15T04:01:44.856Z,-86
2017-12-15T04:04:15.555Z,-86
2017-12-15T04:06:44.240Z,-86
2017-12-15T04:09:15.916Z,-87
2017-12-15T04:11:44.591Z,-86
2017-12-15T04:14:13.263Z,-86
2017-12-15T04:16:41.952Z,-86
2017-12-15T04:19:11.387Z,-86
2017-12-15T04:21:40.089Z,-86
2017-12-15T04:24:15.707Z,-86
2017-12-15T04:26:50.683Z,-86
2017-12-15T04:29:25.545Z,-86
2017-12-15T04:31:55.003Z,-86
2017-12-15T04:34:29.318Z,-86
2017-12-15T04:36:58.019Z,-86
2017-12-15T04:39:26.692Z,-87
2017-12-15T04:42:01.707Z,-86
2017-12-15T04:44:32.024Z,-86
2017-12-15T04:47:00.684Z,-86
2017-12-15T04:49:29.381Z,-87
2017-12-15T04:51:58.052Z,-87
2017-12-15T04:54:32.879Z,-86
2017-12-15T04:57:01.551Z,-87
2017-12-15T04:59:30.992Z,-87
2017-12-15T05:02:05.855Z,-87
2017-12-15T05:04:34.526Z,-87
2017-12-15T05:07:03.215Z,-87
2017-12-15T05:09:31.915Z,-87
2017-12-15T05:12:06.832Z,-86
2017-12-15T05:14:35.507Z,-86
2017-12-15T05:17:04.173Z,-86
2017-12-15T05:19:32.847Z,-86
2017-12-15T05:22:01.522Z,-86
2017-12-15T05:24:30.966Z,-86
2017-12-15T05:26:59.639Z,-87
2017-12-15T05:29:34.603Z,-86
2017-12-15T05:32:03.280Z,-87
2017-12-15T05:34:31.954Z,-86
2017-12-15T05:37:06.902Z,-86
2017-12-15T05:39:35.583Z,-87
2017-12-15T05:42:04.260Z,-86
2017-12-15T05:44:39.069Z,-86
2017-12-15T05:47:07.739Z,-86
2017-12-15T05:49:36.422Z,-86
2017-12-15T05:52:05.865Z,-88
2017-12-15T05:54:40.803Z,-86
2017-12-15T05:57:09.463Z,-86
2017-12-15T05:59:38.143Z,-86
2017-12-15T06:02:12.986Z,-86
2017-12-15T06:04:47.328Z,-85
2017-12-15T06:07:16.004Z,-87
2017-12-15T06:09:44.684Z,-85
2017-12-15T06:12:19.480Z,-85
2017-12-15T06:14:48.163Z,-82
2017-12-15T06:17:16.851Z,-83
2017-12-15T06:19:45.526Z,-82
2017-12-15T06:22:14.963Z,-81
2017-12-15T06:24:43.647Z,-84
2017-12-15T06:27:12.318Z,-82
2017-12-15T06:29:40.999Z,-85
2017-12-15T06:32:09.663Z,-85
2017-12-15T06:34:39.102Z,-82
2017-12-15T06:37:13.903Z,-84
2017-12-15T06:39:43.349Z,-85
2017-12-15T06:42:12.015Z,-84
2017-12-15T06:44:40.699Z,-83
2017-12-15T06:47:09.528Z,-84
2017-12-15T06:49:39.114Z,-86
2017-12-15T06:52:07.787Z,-83
2017-12-15T06:54:42.719Z,-82
2017-12-15T06:57:12.248Z,-83
2017-12-15T06:59:41.783Z,-83
2017-12-15T07:02:10.448Z,-83
2017-12-15T07:04:46.287Z,-82
2017-12-15T07:07:14.971Z,-82
2017-12-15T07:09:46.410Z,-82
2017-12-15T07:12:15.090Z,-82
2017-12-15T07:14:43.762Z,-82
2017-12-15T07:17:12.440Z,-82
2017-12-15T07:19:41.161Z,-82
2017-12-15T07:22:15.964Z,-82
2017-12-15T07:24:47.957Z,-83
2017-12-15T07:27:29.815Z,-88
2017-12-15T07:37:35.392Z,-89
2017-12-15T07:40:23.401Z,-88
2017-12-15T07:58:30.790Z,-87
2017-12-15T08:13:15.544Z,-87
2017-12-15T08:15:50.697Z,-88
2017-12-15T12:47:16.898Z,-89
2017-12-15T12:50:40.946Z,-88
2017-12-15T13:02:45.257Z,-89
2017-12-15T13:05:18.823Z,-89
2017-12-15T13:08:14.182Z,-89
2017-12-15T13:10:54.739Z,-89
2017-12-15T13:14:26.579Z,-89
2017-12-15T13:29:17.197Z,-88
2017-12-15T13:31:52.850Z,-89
2017-12-15T13:37:27.608Z,-89
2017-12-15T13:39:59.605Z,-88
2017-12-15T13:42:31.365Z,-89
2017-12-15T13:45:19.929Z,-89
2017-12-15T13:51:03.265Z,-89
2017-12-15T13:53:38.211Z,-89
2017-12-15T13:56:07.655Z,-89
2017-12-15T13:58:45.803Z,-88
2017-12-15T14:01:20.717Z,-89
2017-12-15T14:03:49.438Z,-89
2017-12-15T14:06:18.125Z,-89
2017-12-15T14:08:56.304Z,-89
2017-12-15T14:11:37.191Z,-89
2017-12-15T14:14:05.891Z,-89
2017-12-15T14:16:40.895Z,-88
2017-12-15T14:19:15.777Z,-89
2017-12-15T14:21:45.188Z,-89
2017-12-15T14:24:13.976Z,-88
2017-12-15T14:26:49.581Z,-88
2017-12-15T14:29:21.589Z,-89
2017-12-15T14:31:58.074Z,-88
2017-12-15T14:34:36.930Z,-88
2017-12-15T14:37:10.291Z,-89
2017-12-15T14:39:45.545Z,-88
2017-12-15T14:42:15.229Z,-88
2017-12-15T14:44:51.563Z,-89
2017-12-15T14:47:20.397Z,-88
2017-12-15T14:49:56.750Z,-88
2017-12-15T14:52:33.389Z,-88
2017-12-15T14:55:03.003Z,-87
2017-12-15T14:57:33.297Z,-87
2017-12-15T15:00:11.411Z,-88
2017-12-15T15:02:41.039Z,-88
2017-12-15T15:05:19.002Z,-89
2017-12-15T15:07:48.408Z,-88
2017-12-15T15:13:50.454Z,-88
2017-12-15T15:16:27.453Z,-89
2017-12-15T15:19:04.168Z,-88
2017-12-15T15:31:20.065Z,-89
2017-12-15T15:36:58.895Z,-88
2017-12-15T15:46:12.453Z,-90
2017-12-15T15:48:55.382Z,-91
2017-12-15T17:59:44.435Z,-90
2017-12-15T18:51:17.351Z,-89
2017-12-15T18:53:52.246Z,-89
2017-12-15T18:56:20.940Z,-87
2017-12-15T18:58:51.260Z,-89
2017-12-15T19:01:21.668Z,-86
2017-12-15T19:03:50.343Z,-88
2017-12-15T19:06:19.193Z,-88
2017-12-15T19:08:48.779Z,-85
2017-12-15T19:11:17.479Z,-87
2017-12-15T19:13:46.195Z,-86
2017-12-15T19:16:21.840Z,-86
2017-12-15T19:18:52.646Z,-89
2017-12-15T19:21:27.576Z,-89
2017-12-15T19:23:56.410Z,-91
2017-12-15T19:26:26.180Z,-90
2017-12-15T19:28:57.833Z,-87
2017-12-15T19:31:28.727Z,-86
2017-12-15T19:34:03.585Z,-87
2017-12-15T19:36:38.553Z,-87
2017-12-15T19:39:07.323Z,-87
2017-12-15T19:41:37.445Z,-87
2017-12-15T19:44:09.025Z,-87
2017-12-15T19:46:38.551Z,-88
2017-12-15T19:49:07.294Z,-87
2017-12-15T19:51:42.647Z,-88
2017-12-15T19:54:17.663Z,-86
2017-12-15T19:56:46.353Z,-87
2017-12-15T19:59:15.996Z,-87
2017-12-15T20:01:44.769Z,-88
2017-12-15T20:04:13.530Z,-86
2017-12-15T20:06:50.399Z,-88
2017-12-15T20:09:25.295Z,-87
2017-12-15T20:12:00.256Z,-86
2017-12-15T20:14:29.020Z,-88
2017-12-15T20:17:04.032Z,-87
2017-12-15T20:19:32.829Z,-86
2017-12-15T20:22:01.633Z,-87
2017-12-15T20:24:36.609Z,-87
2017-12-15T20:27:12.335Z,-86
2017-12-15T20:29:43.028Z,-87
2017-12-15T20:32:11.730Z,-87
2017-12-15T20:34:45.560Z,-87
2017-12-15T20:37:14.291Z,-87
2017-12-15T20:39:44.057Z,-88
2017-12-15T20:42:12.890Z,-87
2017-12-15T20:44:41.680Z,-86
2017-12-15T20:47:10.405Z,-87
2017-12-15T20:49:39.099Z,-87
2017-12-15T20:52:14.027Z,-87
2017-12-15T20:54:49.035Z,-87
2017-12-15T20:57:17.747Z,-88
2017-12-15T20:59:46.455Z,-88
2017-12-15T21:02:15.120Z,-88
2017-12-15T21:04:44.759Z,-87
2017-12-15T21:07:19.564Z,-87
2017-12-15T21:09:53.254Z,-87
2017-12-15T21:12:22.068Z,-88
2017-12-15T21:14:55.701Z,-87
2017-12-15T21:17:27.494Z,-87
2017-12-15T21:19:58.192Z,-87
2017-12-15T21:22:33.783Z,-87
2017-12-15T21:25:08.624Z,-88
2017-12-15T21:27:37.311Z,-88
2017-12-15T21:30:06.047Z,-89
2017-12-15T21:32:39.501Z,-87
2017-12-15T21:35:14.035Z,-88
2017-12-15T21:37:42.722Z,-89
2017-12-15T21:40:11.435Z,-87
2017-12-15T21:42:46.384Z,-88
2017-12-15T21:45:16.975Z,-87
2017-12-15T21:47:52.715Z,-89
2017-12-15T21:50:25.521Z,-89
2017-12-15T21:52:57.400Z,-92
2017-12-15T21:55:32.272Z,-88
2017-12-15T21:58:08.334Z,-87
2017-12-15T22:00:37.014Z,-87
2017-12-15T22:03:05.684Z,-87
2017-12-15T22:05:34.369Z,-89
2017-12-15T22:08:09.193Z,-91
2017-12-15T22:10:37.867Z,-91
2017-12-15T22:13:06.550Z,-91
2017-12-15T22:15:46.039Z,-89
2017-12-15T22:18:45.003Z,-92
2017-12-15T22:21:19.867Z,-89
2017-12-15T22:23:54.727Z,-87
2017-12-15T22:26:27.076Z,-90
2017-12-15T22:28:59.021Z,-90
2017-12-15T22:31:33.998Z,-88
2017-12-15T22:34:10.716Z,-90
2017-12-15T22:36:45.764Z,-90
2017-12-15T22:39:14.692Z,-89
2017-12-15T22:41:49.728Z,-89
2017-12-15T22:44:27.628Z,-93
2017-12-15T22:47:07.941Z,-90
2017-12-15T22:49:37.652Z,-91
2017-12-15T22:52:13.338Z,-85
2017-12-15T22:54:47.111Z,-88
2017-12-15T22:57:17.910Z,-92
2017-12-15T22:59:46.615Z,-88
2017-12-15T23:02:16.364Z,-92
2017-12-15T23:05:02.104Z,-88
2017-12-15T23:07:37.881Z,-89
2017-12-15T23:10:19.090Z,-88
2017-12-15T23:12:51.545Z,-91
2017-12-15T23:15:26.418Z,-87
2017-12-15T23:17:55.099Z,-89
2017-12-15T23:20:23.791Z,-88
2017-12-15T23:22:59.234Z,-88
2017-12-15T23:25:34.027Z,-90
2017-12-15T23:28:03.572Z,-90
2017-12-15T23:30:32.263Z,-89
2017-12-15T23:33:02.909Z,-86
2017-12-15T23:35:37.896Z,-87
2017-12-15T23:38:07.350Z,-88
2017-12-15T23:40:36.983Z,-89
2017-12-15T23:43:05.749Z,-86
2017-12-15T23:45:34.419Z,-86
2017-12-15T23:48:08.454Z,-88
2017-12-15T23:50:44.698Z,-92
2017-12-15T23:53:13.982Z,-91
2017-12-15T23:56:00.651Z,-92
2017-12-15T23:58:35.825Z,-89
